Time;durP1;ratioP1;P1;durP2;ratioP2;P2;SDS_P1;SDS_P2;PMS_P1;PMS_P2;Temp;Humidity;BMP_temperature;BMP_pressure;BME280_temperature;BME280_humidity;BME280_pressure;Samples;Min_cycle;Max_cycle;Signal;HPM_P1;HPM_P2
2020/12/06 00:01:30;;;;;;;5.82;3.80;;;;;;;20.44;37.76;98346.19;5004321;28;20046;-75
2020/12/06 00:03:55;;;;;;;8.93;3.67;;;;;;;20.43;37.85;98349.75;5003726;28;20030;-73
2020/12/06 00:06:21;;;;;;;4.53;3.45;;;;;;;20.45;37.82;98355.78;5001520;28;20032;-74
2020/12/06 00:08:48;;;;;;;6.53;3.83;;;;;;;20.42;37.82;98356.78;5000430;28;20017;-79
2020/12/06 00:11:14;;;;;;;5.95;3.50;;;;;;;20.44;37.62;98351.44;5000505;28;20034;-75
2020/12/06 00:13:40;;;;;;;4.80;3.45;;;;;;;20.44;37.88;98351.44;5000376;28;20038;-74
2020/12/06 00:16:19;;;;;;;4.70;3.08;;;;;;;20.42;37.53;98348.88;5000817;28;20122;-75
2020/12/06 00:18:46;;;;;;;4.60;3.05;;;;;;;20.42;37.86;98340.16;5004029;28;20037;-73
2020/12/06 00:21:17;;;;;;;4.78;3.13;;;;;;;20.43;37.56;98340.06;5000874;28;20026;-76
2020/12/06 00:23:43;;;;;;;4.20;3.10;;;;;;;20.42;37.76;98333.09;5000234;28;20066;-72
2020/12/06 00:26:10;;;;;;;7.95;3.85;;;;;;;20.42;37.80;98332.25;4999970;28;20037;-74
2020/12/06 00:28:35;;;;;;;5.55;3.53;;;;;;;20.42;37.57;98330.47;5000705;28;20036;-76
2020/12/06 00:31:01;;;;;;;4.82;3.28;;;;;;;20.42;37.66;98337.53;4998669;28;20037;-74
2020/12/06 00:33:26;;;;;;;5.78;3.83;;;;;;;20.43;37.73;98349.75;5000270;28;20034;-75
2020/12/06 00:35:52;;;;;;;4.60;3.17;;;;;;;20.42;37.71;98343.63;5000516;28;20058;-76
2020/12/06 00:38:18;;;;;;;4.68;3.20;;;;;;;20.42;37.71;98342.78;4999113;28;20030;-72
2020/12/06 00:40:43;;;;;;;5.30;3.70;;;;;;;20.43;37.60;98339.22;5000096;28;20045;-76
2020/12/06 00:43:11;;;;;;;4.82;3.05;;;;;;;20.41;37.74;98338.44;5016145;28;20030;-73
2020/12/06 00:45:37;;;;;;;4.25;3.30;;;;;;;20.42;37.75;98330.47;5002135;28;20035;-76
2020/12/06 00:48:02;;;;;;;4.82;3.55;;;;;;;20.41;37.87;98328.75;5000581;28;20440;-74
2020/12/06 00:50:28;;;;;;;6.05;3.58;;;;;;;20.42;37.70;98334.88;5000941;28;20507;-75
2020/12/06 00:52:53;;;;;;;5.72;3.50;;;;;;;20.41;37.54;98335.81;5001006;28;20038;-74
2020/12/06 00:55:19;;;;;;;5.47;3.45;;;;;;;20.42;37.70;98338.34;4999516;28;20240;-74
2020/12/06 00:57:44;;;;;;;4.95;3.28;;;;;;;20.42;37.58;98340.16;5000616;28;20061;-76
2020/12/06 01:00:11;;;;;;;5.57;3.70;;;;;;;20.40;37.73;98348.09;4999895;28;20045;-71
2020/12/06 01:02:37;;;;;;;6.68;3.92;;;;;;;20.42;37.38;98350.69;5000625;28;20030;-79
2020/12/06 01:05:03;;;;;;;4.60;3.53;;;;;;;20.42;37.87;98363.81;4999454;28;20052;-76
2020/12/06 01:07:36;;;;;;;5.82;3.78;;;;;;;20.39;37.74;98357.78;5002412;28;20053;-72
2020/12/06 01:10:03;;;;;;;5.65;3.75;;;;;;;20.39;37.62;98355.16;5000038;28;20037;-74
2020/12/06 01:12:29;;;;;;;5.85;3.80;;;;;;;20.41;37.60;98349.81;4999092;28;20138;-73
2020/12/06 01:14:54;;;;;;;6.03;3.75;;;;;;;20.39;37.73;98349.91;4999419;28;20184;-74
2020/12/06 01:17:20;;;;;;;4.90;3.47;;;;;;;20.40;37.49;98350.72;4997816;28;20042;-76
2020/12/06 01:19:45;;;;;;;4.68;3.20;;;;;;;20.40;37.59;98345.47;4999559;28;20049;-75
2020/12/06 01:22:10;;;;;;;6.60;4.10;;;;;;;20.40;37.77;98350.72;4999890;28;20030;-74
2020/12/06 01:24:36;;;;;;;4.53;3.25;;;;;;;20.41;37.58;98351.59;4999067;28;20033;-76
2020/12/06 01:27:01;;;;;;;5.68;4.15;;;;;;;20.41;37.60;98356.88;4999988;28;20402;-75
2020/12/06 01:29:27;;;;;;;6.40;4.28;;;;;;;20.40;37.81;98361.25;5002813;28;20084;-74
2020/12/06 01:31:52;;;;;;;4.75;3.78;;;;;;;20.39;37.68;98370.94;4999526;28;20511;-76
2020/12/06 01:34:18;;;;;;;4.93;3.50;;;;;;;20.41;37.57;98380.53;4998167;28;20026;-72
2020/12/06 01:36:43;;;;;;;6.78;4.13;;;;;;;20.39;37.50;98378.00;4999886;28;20138;-75
2020/12/06 01:39:09;;;;;;;5.53;3.80;;;;;;;20.40;37.77;98382.31;4998116;28;20035;-76
2020/12/06 01:41:35;;;;;;;5.20;3.63;;;;;;;20.41;37.83;98388.44;5000456;28;20057;-73
2020/12/06 01:44:03;;;;;;;6.13;4.32;;;;;;;20.38;37.50;98387.66;4998724;28;20113;-76
2020/12/06 01:46:30;;;;;;;5.57;4.05;;;;;;;20.40;37.84;98390.19;4998396;28;20026;-74
2020/12/06 01:48:56;;;;;;;4.57;3.38;;;;;;;20.40;37.74;98382.31;5001426;28;20038;-76
2020/12/06 01:51:22;;;;;;;6.90;4.13;;;;;;;20.39;37.58;98381.47;4999002;28;20404;-79
2020/12/06 01:53:50;;;;;;;6.18;3.75;;;;;;;20.39;37.56;98386.72;4999169;28;20029;-74
2020/12/06 01:56:16;;;;;;;6.07;4.07;;;;;;;20.39;37.62;98394.63;4998546;28;20065;-75
2020/12/06 01:58:41;;;;;;;8.23;4.22;;;;;;;20.38;37.54;98392.91;4999001;28;20034;-72
2020/12/06 02:01:08;;;;;;;5.65;4.00;;;;;;;20.40;37.59;98379.66;4998725;28;20026;-73
2020/12/06 02:03:34;;;;;;;6.95;4.50;;;;;;;20.38;37.78;98369.25;4999111;28;20120;-76
2020/12/06 02:05:59;;;;;;;5.32;3.88;;;;;;;20.37;37.79;98349.13;4999127;28;20027;-76
2020/12/06 02:08:24;;;;;;;6.45;4.03;;;;;;;20.38;37.56;98340.31;4996621;28;20458;-75
2020/12/06 02:10:50;;;;;;;5.57;3.90;;;;;;;20.38;37.62;98335.03;4998423;28;20035;-78
2020/12/06 02:13:15;;;;;;;6.72;4.20;;;;;;;20.38;37.62;98323.69;4998095;28;20041;-72
2020/12/06 02:15:41;;;;;;;8.45;4.22;;;;;;;20.37;37.56;98317.56;4997139;28;20568;-74
2020/12/06 02:18:06;;;;;;;7.70;4.35;;;;;;;20.41;37.47;98320.03;4997860;28;20026;-75
2020/12/06 02:20:32;;;;;;;5.88;3.88;;;;;;;20.40;37.57;98313.91;4998086;28;20491;-75
2020/12/06 02:22:58;;;;;;;4.68;3.50;;;;;;;20.40;37.62;98313.91;4996673;28;20034;-75
2020/12/06 02:25:23;;;;;;;6.93;4.32;;;;;;;20.40;37.60;98319.16;4995412;28;20486;-76
2020/12/06 02:27:49;;;;;;;5.90;4.20;;;;;;;20.39;37.48;98322.75;4996097;28;20035;-72
2020/12/06 02:30:14;;;;;;;5.55;3.65;;;;;;;20.38;37.58;98328.94;4997443;28;20407;-73
2020/12/06 02:32:40;;;;;;;5.03;3.55;;;;;;;20.38;37.47;98329.78;4995795;28;20042;-75
2020/12/06 02:35:05;;;;;;;9.35;4.60;;;;;;;20.37;37.37;98333.34;4995510;28;20045;-76
2020/12/06 02:37:32;;;;;;;5.95;3.72;;;;;;;20.37;37.54;98330.72;4995020;28;20042;-72
2020/12/06 02:39:57;;;;;;;7.45;4.32;;;;;;;20.37;37.62;98333.34;4996266;28;20568;-73
2020/12/06 02:42:23;;;;;;;6.60;3.78;;;;;;;20.38;37.68;98328.94;4995305;28;20121;-75
2020/12/06 02:44:48;;;;;;;6.53;3.95;;;;;;;20.38;37.40;98342.94;4997604;28;20148;-80
2020/12/06 02:47:14;;;;;;;4.93;3.50;;;;;;;20.35;37.63;98353.59;4997252;28;20038;-75
2020/12/06 02:49:39;;;;;;;6.13;4.13;;;;;;;20.38;37.40;98356.09;4997110;28;20049;-75
2020/12/06 02:52:09;;;;;;;5.20;3.80;;;;;;;20.37;37.56;98358.81;4998130;28;20051;-73
2020/12/06 02:54:34;;;;;;;6.07;3.78;;;;;;;20.37;37.76;98354.38;4998796;28;20175;-73
2020/12/06 02:56:59;;;;;;;4.55;3.53;;;;;;;20.37;37.59;98354.38;5001177;28;20559;-74
2020/12/06 02:59:25;;;;;;;6.25;4.07;;;;;;;20.38;37.53;98357.88;5000412;28;20030;-76
2020/12/06 03:01:50;;;;;;;6.28;4.20;;;;;;;20.37;37.59;98361.44;5000076;28;20042;-74
2020/12/06 03:04:18;;;;;;;6.80;3.85;;;;;;;20.38;37.36;98348.19;5015232;28;20022;-73
2020/12/06 03:06:43;;;;;;;6.28;4.05;;;;;;;20.39;37.54;98354.31;5000249;28;20043;-73
2020/12/06 03:09:09;;;;;;;5.47;4.15;;;;;;;20.38;37.50;98353.47;5000662;28;20117;-75
2020/12/06 03:11:34;;;;;;;6.88;3.97;;;;;;;20.37;37.60;98351.75;4999930;28;20049;-75
2020/12/06 03:14:00;;;;;;;8.65;4.47;;;;;;;20.39;37.54;98357.78;5001130;28;20042;-77
2020/12/06 03:16:25;;;;;;;6.03;3.83;;;;;;;20.38;37.66;98356.09;5003360;28;20030;-74
2020/12/06 03:18:51;;;;;;;5.80;4.10;;;;;;;20.42;37.54;98351.50;5008008;28;20038;-78
2020/12/06 03:21:16;;;;;;;5.72;3.80;;;;;;;20.38;37.47;98347.34;4998620;28;20037;-75
2020/12/06 03:23:41;;;;;;;5.78;4.30;;;;;;;20.38;37.56;98342.94;5001668;28;20043;-78
2020/12/06 03:26:07;;;;;;;5.22;3.78;;;;;;;20.40;37.55;98350.72;5001778;28;20030;-78
2020/12/06 03:28:33;;;;;;;6.35;4.50;;;;;;;20.38;37.52;98342.09;5000854;28;20124;-73
2020/12/06 03:30:58;;;;;;;5.32;3.70;;;;;;;20.39;37.66;98335.91;5000142;28;20038;-77
2020/12/06 03:33:24;;;;;;;7.72;4.30;;;;;;;20.38;37.62;98336.84;4999406;28;20081;-76
2020/12/06 03:35:49;;;;;;;8.18;4.47;;;;;;;20.35;37.58;98337.00;5001006;28;20065;-71
2020/12/06 03:38:14;;;;;;;6.22;4.18;;;;;;;20.36;37.42;98350.06;5000764;28;20118;-75
2020/12/06 03:40:40;;;;;;;6.35;4.07;;;;;;;20.36;37.41;98350.06;4999765;28;20093;-75
2020/12/06 03:43:05;;;;;;;6.18;4.40;;;;;;;20.37;37.47;98353.53;4999992;28;20510;-79
2020/12/06 03:45:31;;;;;;;5.20;3.70;;;;;;;20.36;37.38;98359.72;4998849;28;20164;-77
2020/12/06 03:47:56;;;;;;;6.28;3.83;;;;;;;20.36;37.40;98367.63;4997662;28;20065;-74
2020/12/06 03:50:23;;;;;;;5.63;4.05;;;;;;;20.36;37.48;98370.25;4998527;28;20495;-76
2020/12/06 03:52:48;;;;;;;4.97;3.70;;;;;;;20.37;37.61;98378.06;5000255;28;20074;-77
2020/12/06 03:55:14;;;;;;;11.05;4.32;;;;;;;20.37;37.39;98370.16;5001147;28;20038;-76
2020/12/06 03:57:39;;;;;;;5.82;3.40;;;;;;;20.35;37.46;98361.50;5006365;28;20088;-76
2020/12/06 04:00:06;;;;;;;6.53;3.75;;;;;;;20.36;37.55;98360.56;5006902;28;20485;-74
2020/12/06 04:02:31;;;;;;;5.97;3.75;;;;;;;20.37;37.49;98361.44;5005037;28;20464;-72
2020/12/06 04:04:57;;;;;;;5.70;3.78;;;;;;;20.36;37.40;98357.09;5005603;28;20026;-76
2020/12/06 04:07:23;;;;;;;6.10;4.43;;;;;;;20.36;37.46;98351.84;5006339;28;20037;-76
2020/12/06 04:09:48;;;;;;;5.03;4.00;;;;;;;20.38;37.34;98356.09;5006690;28;20406;-75
2020/12/06 04:12:14;;;;;;;5.90;3.97;;;;;;;20.35;37.22;98358.88;5005629;28;20118;-75
2020/12/06 04:14:39;;;;;;;5.32;3.92;;;;;;;20.36;37.41;98362.38;5005338;28;20117;-73
2020/12/06 04:17:04;;;;;;;4.70;3.50;;;;;;;20.36;37.56;98359.72;5005255;28;20041;-73
2020/12/06 04:19:30;;;;;;;6.15;3.97;;;;;;;20.36;37.37;98355.31;5002645;28;20042;-76
2020/12/06 04:21:56;;;;;;;6.72;4.25;;;;;;;20.36;37.57;98359.72;5002892;28;20034;-75
2020/12/06 04:24:21;;;;;;;5.32;3.50;;;;;;;20.37;37.52;98354.38;5002348;28;20045;-75
2020/12/06 04:26:47;;;;;;;6.03;4.15;;;;;;;20.37;37.54;98353.53;5003716;28;20499;-74
2020/12/06 04:29:12;;;;;;;6.32;3.78;;;;;;;20.36;37.44;98357.09;5001934;28;20041;-74
2020/12/06 04:31:38;;;;;;;5.82;3.80;;;;;;;20.36;37.35;98347.41;5004569;28;20097;-80
2020/12/06 04:34:03;;;;;;;6.03;3.92;;;;;;;20.36;37.29;98357.94;5002741;28;20027;-74
2020/12/06 04:36:29;;;;;;;5.03;3.50;;;;;;;20.36;37.53;98347.41;5004396;28;20030;-78
2020/12/06 04:38:54;;;;;;;6.85;3.45;;;;;;;20.37;37.46;98356.19;5001416;28;20037;-74
2020/12/06 04:41:23;;;;;;;5.20;3.83;;;;;;;20.36;37.38;98360.56;5002797;28;20030;-78
2020/12/06 04:43:49;;;;;;;5.25;3.90;;;;;;;20.38;37.39;98357.88;5002960;28;20034;-75
2020/12/06 04:46:14;;;;;;;6.45;3.78;;;;;;;20.36;37.34;98362.38;5002530;28;20022;-78
2020/12/06 04:48:56;;;;;;;5.30;3.78;;;;;;;20.35;37.44;98364.13;5002932;28;20034;-74
2020/12/06 04:51:26;;;;;;;5.07;3.15;;;;;;;20.36;37.56;98363.19;5005933;28;20025;-75
2020/12/06 04:54:03;;;;;;;5.60;3.97;;;;;;;20.36;37.50;98362.38;5004919;28;20079;-77
2020/12/06 04:56:30;;;;;;;6.65;4.47;;;;;;;20.35;37.49;98348.34;5003935;28;20098;-77
2020/12/06 04:59:00;;;;;;;5.00;3.58;;;;;;;20.33;37.28;98354.63;5004902;28;20584;-73
2020/12/06 05:01:33;;;;;;;4.80;3.90;;;;;;;20.33;37.54;98359.88;5003336;28;20023;-78
2020/12/06 05:04:08;;;;;;;6.18;3.58;;;;;;;20.31;37.44;98362.59;5003566;28;20042;-77
2020/12/06 05:06:37;;;;;;;5.75;3.58;;;;;;;20.33;37.48;98355.47;5006154;28;20025;-79
2020/12/06 05:09:07;;;;;;;5.00;3.75;;;;;;;20.31;37.45;98353.84;5006124;28;20037;-78
2020/12/06 05:11:35;;;;;;;4.47;3.25;;;;;;;20.33;37.42;98344.09;5003305;28;20494;-75
2020/12/06 05:14:00;;;;;;;4.32;3.13;;;;;;;20.33;37.15;98347.56;4999560;28;20057;-76
2020/12/06 05:16:26;;;;;;;4.72;3.20;;;;;;;20.32;37.36;98342.41;5000154;28;20034;-77
2020/12/06 05:18:52;;;;;;;7.15;4.10;;;;;;;20.32;37.49;98335.34;4998765;28;20032;-72
2020/12/06 05:21:17;;;;;;;6.47;3.60;;;;;;;20.33;37.49;98330.94;5003918;28;20121;-74
2020/12/06 05:23:43;;;;;;;7.95;3.38;;;;;;;20.34;37.35;98325.59;5000222;28;20084;-75
2020/12/06 05:26:08;;;;;;;4.32;3.22;;;;;;;20.34;37.50;98311.59;5001464;28;20037;-79
2020/12/06 05:28:34;;;;;;;6.60;3.65;;;;;;;20.35;37.42;98301.00;5002420;28;20058;-77
2020/12/06 05:31:03;;;;;;;5.15;3.47;;;;;;;20.33;37.31;98294.97;4999061;28;20030;-74
2020/12/06 05:33:30;;;;;;;5.07;3.63;;;;;;;20.34;37.48;98298.47;5000344;28;20031;-75
2020/12/06 05:36:01;;;;;;;4.18;3.20;;;;;;;20.34;37.36;98301.09;5000912;28;20038;-74
2020/12/06 05:38:26;;;;;;;4.85;3.58;;;;;;;20.34;37.39;98303.72;5005311;28;20041;-73
2020/12/06 05:40:55;;;;;;;5.72;3.55;;;;;;;20.34;37.44;98308.97;4999840;28;20042;-73
2020/12/06 05:43:26;;;;;;;7.05;3.90;;;;;;;20.33;37.39;98308.13;4997934;28;20038;-74
2020/12/06 05:46:10;;;;;;;5.47;4.03;;;;;;;20.35;37.31;98303.63;5000559;28;20083;-79
2020/12/06 05:48:37;;;;;;;4.22;3.10;;;;;;;20.35;37.36;98301.00;5000815;28;20085;-78
2020/12/06 05:51:03;;;;;;;9.10;4.43;;;;;;;20.33;37.38;98300.22;5000475;28;20072;-74
2020/12/06 05:53:29;;;;;;;5.55;3.17;;;;;;;20.35;37.49;98295.72;5000750;28;20026;-76
2020/12/06 05:56:03;;;;;;;5.15;3.55;;;;;;;20.33;37.41;98292.34;4996351;28;20109;-75
2020/12/06 05:58:31;;;;;;;5.40;3.50;;;;;;;20.33;37.37;98300.22;5000870;28;20463;-73
2020/12/06 06:00:59;;;;;;;5.25;3.53;;;;;;;20.34;37.29;98301.91;5001631;28;20057;-77
2020/12/06 06:03:28;;;;;;;5.78;3.70;;;;;;;20.34;37.25;98319.50;4998711;28;20065;-80
2020/12/06 06:05:55;;;;;;;6.00;3.25;;;;;;;20.35;37.30;98326.47;4999700;28;20513;-79
2020/12/06 06:08:25;;;;;;;4.95;3.70;;;;;;;20.33;37.30;98331.78;4998242;28;20554;-77
2020/12/06 06:11:19;;;;;;;3.45;2.90;;;;;;;20.32;37.26;98326.63;5000009;28;20501;-73
2020/12/06 06:14:04;;;;;;;6.28;3.60;;;;;;;20.34;37.48;98333.50;4997778;28;20115;-72
2020/12/06 06:16:31;;;;;;;5.70;2.88;;;;;;;20.35;37.43;98329.94;4997691;28;20030;-76
2020/12/06 06:18:59;;;;;;;5.43;3.03;;;;;;;20.35;37.49;98329.09;4999616;28;20037;-78
2020/12/06 06:21:29;;;;;;;5.43;3.45;;;;;;;20.35;37.36;98343.09;4999317;28;20034;-75
2020/12/06 06:23:57;;;;;;;5.57;3.20;;;;;;;20.36;37.47;98336.06;4998589;28;20101;-79
2020/12/06 06:26:27;;;;;;;4.82;3.38;;;;;;;20.35;37.32;98326.47;5002021;28;20034;-79
2020/12/06 06:28:53;;;;;;;5.45;3.30;;;;;;;20.34;37.44;98327.41;5003580;28;20398;-72
2020/12/06 06:31:20;;;;;;;5.60;3.33;;;;;;;20.35;37.41;98323.84;4997345;28;20034;-79
2020/12/06 06:33:47;;;;;;;4.25;3.00;;;;;;;20.34;37.30;98336.13;4998315;28;20062;-77
2020/12/06 06:36:12;;;;;;;6.18;3.88;;;;;;;20.35;37.50;98337.00;4999099;28;20061;-78
2020/12/06 06:38:44;;;;;;;4.68;3.15;;;;;;;20.33;37.44;98350.19;4999325;28;20104;-77
2020/12/06 06:41:11;;;;;;;4.38;2.95;;;;;;;20.34;37.45;98353.69;4997563;28;20030;-75
2020/12/06 06:43:41;;;;;;;5.20;3.53;;;;;;;20.34;37.31;98353.69;4999771;28;20034;-76
2020/12/06 06:46:13;;;;;;;4.95;3.72;;;;;;;20.34;37.42;98346.63;4996515;28;20033;-78
2020/12/06 06:48:38;;;;;;;4.72;3.63;;;;;;;20.35;37.45;98339.63;4994347;28;20026;-77
2020/12/06 06:51:04;;;;;;;6.13;3.53;;;;;;;20.34;37.24;98333.50;4997852;28;20071;-75
2020/12/06 06:53:30;;;;;;;4.75;3.28;;;;;;;20.34;37.39;98344.00;4998323;28;20499;-76
2020/12/06 06:55:58;;;;;;;4.05;3.17;;;;;;;20.33;37.45;98346.72;4994926;28;20029;-74
2020/12/06 06:58:26;;;;;;;3.60;2.42;;;;;;;20.34;37.42;98351.91;4993843;28;20542;-79
2020/12/06 07:01:15;;;;;;;5.07;2.83;;;;;;;20.32;37.45;98353.75;4994862;28;20029;-74
2020/12/06 07:03:58;;;;;;;5.70;2.83;;;;;;;20.31;37.47;98349.44;4997114;28;20042;-76
2020/12/06 07:06:47;;;;;;;4.85;3.03;;;;;;;20.33;37.25;98352.00;4995156;28;20403;-79
2020/12/06 07:09:22;;;;;;;5.10;3.13;;;;;;;20.34;37.12;98356.31;4997519;28;20050;-74
2020/12/06 07:11:49;;;;;;;5.18;3.10;;;;;;;20.33;37.30;98355.47;4995319;28;20039;-76
2020/12/06 07:14:14;;;;;;;4.28;3.10;;;;;;;20.33;37.38;98358.09;4996046;28;20074;-77
2020/12/06 07:16:40;;;;;;;3.47;2.65;;;;;;;20.33;37.48;98360.72;4996691;28;20073;-73
2020/12/06 07:19:05;;;;;;;4.65;3.17;;;;;;;20.36;37.21;98370.25;4996791;28;20034;-73
2020/12/06 07:21:36;;;;;;;6.50;2.90;;;;;;;20.34;37.31;98369.47;4998239;28;20439;-73
2020/12/06 07:24:05;;;;;;;5.03;3.42;;;;;;;20.33;37.24;98370.41;4998317;28;20042;-78
2020/12/06 07:26:31;;;;;;;4.38;3.10;;;;;;;20.34;37.39;98365.06;4997917;28;20040;-74
2020/12/06 07:28:58;;;;;;;5.35;3.30;;;;;;;20.34;37.47;98364.22;4999864;28;20098;-73
2020/12/06 07:31:26;;;;;;;4.88;3.15;;;;;;;20.34;37.52;98361.59;5004901;28;20037;-76
2020/12/06 07:33:51;;;;;;;4.40;3.20;;;;;;;20.36;37.28;98365.00;5001721;28;20116;-76
2020/12/06 07:36:17;;;;;;;3.80;2.90;;;;;;;20.35;37.30;98365.94;5001196;28;20113;-75
2020/12/06 07:38:43;;;;;;;5.28;2.67;;;;;;;20.34;37.38;98359.78;5002060;28;20070;-74
2020/12/06 07:41:09;;;;;;;4.25;3.25;;;;;;;20.35;37.09;98379.91;5001524;28;20050;-77
2020/12/06 07:43:35;;;;;;;5.38;3.10;;;;;;;20.35;37.37;98369.38;5002342;28;20042;-76
2020/12/06 07:46:21;;;;;;;3.85;2.78;;;;;;;20.32;37.27;98380.06;5002705;28;20040;-75
2020/12/06 07:48:56;;;;;;;5.22;3.45;;;;;;;20.32;37.27;98382.69;5002470;28;20057;-77
2020/12/06 07:51:26;;;;;;;4.32;3.30;;;;;;;20.34;37.32;98383.47;4997896;28;20448;-75
2020/12/06 07:53:53;;;;;;;4.53;2.83;;;;;;;20.38;37.30;98373.66;5005209;28;20450;-77
2020/12/06 07:56:20;;;;;;;7.63;3.28;;;;;;;20.36;37.21;98386.03;4995740;28;20037;-77
2020/12/06 07:59:14;;;;;;;4.15;2.90;;;;;;;20.33;37.24;98384.41;4994910;28;20030;-72
2020/12/06 08:01:42;;;;;;;6.70;3.60;;;;;;;20.34;37.11;98372.13;5000094;28;20095;-74
2020/12/06 08:04:11;;;;;;;4.22;2.75;;;;;;;20.33;37.20;98371.25;4997924;28;20034;-77
2020/12/06 08:06:42;;;;;;;5.88;3.08;;;;;;;20.36;37.40;98376.34;5000045;28;20077;-80
2020/12/06 08:09:08;;;;;;;5.43;3.47;;;;;;;20.37;37.38;98374.59;4997574;28;20038;-75
2020/12/06 08:11:43;;;;;;;5.78;2.75;;;;;;;20.36;37.70;98371.09;4998229;28;20046;-74
2020/12/06 08:14:09;;;;;;;6.68;3.05;;;;;;;20.38;37.37;98387.66;4997612;28;20573;-76
2020/12/06 08:16:34;;;;;;;5.10;3.15;;;;;;;20.39;37.50;98391.16;4993037;28;20396;-71
2020/12/06 08:19:02;;;;;;;7.88;3.25;;;;;;;20.40;37.41;98387.56;4999498;28;20041;-75
2020/12/06 08:21:43;;;;;;;6.35;2.90;;;;;;;20.39;37.27;98397.25;4999285;28;20052;-77
2020/12/06 08:24:22;;;;;;;5.13;3.03;;;;;;;20.42;37.31;98390.97;4998577;28;20403;-75
2020/12/06 08:26:49;;;;;;;5.72;2.78;;;;;;;20.44;37.38;98385.66;4997697;28;20022;-76
2020/12/06 08:29:15;;;;;;;4.82;3.10;;;;;;;20.41;37.66;98370.84;4996190;28;20029;-78
2020/12/06 08:31:42;;;;;;;6.70;3.20;;;;;;;20.43;37.44;98376.06;5000065;28;20030;-76
2020/12/06 08:34:14;;;;;;;4.88;3.10;;;;;;;20.41;37.35;98373.47;5001002;28;20022;-79
2020/12/06 08:36:40;;;;;;;5.28;2.88;;;;;;;20.45;37.46;98374.19;5000619;28;20879;-77
2020/12/06 08:39:19;;;;;;;5.65;2.92;;;;;;;20.43;37.31;98370.78;4999215;28;20045;-78
2020/12/06 08:41:45;;;;;;;5.55;2.75;;;;;;;20.43;37.63;98376.88;4994472;28;20054;-79
2020/12/06 08:44:11;;;;;;;8.57;3.42;;;;;;;20.46;37.36;98375.91;4994233;28;20030;-73
2020/12/06 08:46:36;;;;;;;5.40;3.55;;;;;;;20.44;37.40;98378.59;4995195;28;20038;-74
2020/12/06 08:49:15;;;;;;;5.30;2.90;;;;;;;20.42;37.73;98377.81;4995495;28;20019;-77
2020/12/06 08:51:47;;;;;;;6.28;3.50;;;;;;;20.43;37.45;98381.31;4992802;28;20038;-75
2020/12/06 08:54:12;;;;;;;5.80;3.22;;;;;;;20.43;37.65;98376.06;4990160;28;20066;-74
2020/12/06 08:56:42;;;;;;;11.57;3.47;;;;;;;20.43;37.52;98395.31;4991906;28;20061;-74
2020/12/06 08:59:13;;;;;;;6.70;2.90;;;;;;;20.43;37.45;98397.09;4982753;28;20049;-77
2020/12/06 09:01:56;;;;;;;6.05;3.38;;;;;;;20.42;37.43;98398.88;4992102;28;20030;-76
2020/12/06 09:04:22;;;;;;;5.70;4.05;;;;;;;20.44;37.60;98397.00;4991450;28;20454;-72
2020/12/06 09:06:50;;;;;;;7.03;3.30;;;;;;;20.45;37.42;98384.72;4991235;28;20154;-76
2020/12/06 09:09:15;;;;;;;6.93;3.00;;;;;;;20.49;37.53;98380.97;4991199;28;20030;-76
2020/12/06 09:11:41;;;;;;;6.25;2.75;;;;;;;20.51;37.61;98380.00;4992251;28;20081;-77
2020/12/06 09:14:07;;;;;;;5.28;2.90;;;;;;;20.48;37.50;98377.53;4991281;28;20411;-77
2020/12/06 09:16:32;;;;;;;6.00;2.90;;;;;;;20.47;37.58;98380.25;4992116;28;20077;-75
2020/12/06 09:18:58;;;;;;;6.53;3.28;;;;;;;20.51;37.43;98379.13;4994045;28;20498;-75
2020/12/06 09:21:23;;;;;;;5.97;2.83;;;;;;;20.52;37.71;98383.47;4991149;28;20030;-73
2020/12/06 09:23:49;;;;;;;6.95;3.17;;;;;;;20.51;37.53;98382.63;4991591;28;20060;-76
2020/12/06 09:26:14;;;;;;;3.88;2.72;;;;;;;20.52;37.40;98376.44;4993409;28;20078;-74
2020/12/06 09:28:40;;;;;;;6.70;3.13;;;;;;;20.51;37.35;98364.22;4991955;28;20524;-74
2020/12/06 09:31:06;;;;;;;6.03;3.47;;;;;;;20.55;37.64;98362.25;4991014;28;20030;-72
2020/12/06 09:33:31;;;;;;;6.32;4.20;;;;;;;20.53;37.62;98362.34;5000628;28;20042;-75
2020/12/06 09:35:57;;;;;;;5.18;3.17;;;;;;;20.53;37.68;98364.13;4989444;28;20036;-74
2020/12/06 09:38:23;;;;;;;4.90;3.13;;;;;;;20.54;37.55;98366.69;4990727;28;20157;-74
2020/12/06 09:40:49;;;;;;;10.45;3.50;;;;;;;20.54;37.61;98365.81;4990582;28;20050;-74
2020/12/06 09:43:15;;;;;;;8.00;3.90;;;;;;;20.54;37.45;98357.94;4992662;28;20046;-73
2020/12/06 09:45:42;;;;;;;5.88;2.85;;;;;;;20.54;37.61;98353.53;5009934;28;20118;-72
2020/12/06 09:48:08;;;;;;;4.78;3.55;;;;;;;20.57;37.46;98360.41;4992399;28;20115;-77
2020/12/06 09:50:34;;;;;;;7.70;3.17;;;;;;;20.58;37.38;98361.25;4992162;28;20157;-78
2020/12/06 09:52:59;;;;;;;8.30;3.20;;;;;;;20.59;37.45;98363.81;4998891;28;20046;-73
2020/12/06 09:55:24;;;;;;;7.28;3.33;;;;;;;20.61;37.36;98364.59;5005669;28;20085;-77
2020/12/06 09:57:50;;;;;;;5.65;3.20;;;;;;;20.60;37.52;98362.88;5007228;28;20042;-75
2020/12/06 10:00:16;;;;;;;5.07;3.45;;;;;;;20.62;37.47;98361.03;5012609;28;20445;-75
2020/12/06 10:02:42;;;;;;;7.13;3.60;;;;;;;20.62;37.60;98355.75;5012804;28;20521;-72
2020/12/06 10:05:07;;;;;;;7.07;3.33;;;;;;;20.62;37.37;98341.75;5012028;28;20105;-75
2020/12/06 10:07:33;;;;;;;8.73;3.80;;;;;;;20.63;37.41;98343.44;5012773;28;20509;-75
2020/12/06 10:09:58;;;;;;;8.52;3.80;;;;;;;20.63;37.38;98344.28;5012690;28;20038;-73
2020/12/06 10:12:24;;;;;;;5.97;3.88;;;;;;;20.64;37.53;98340.72;5012030;28;20103;-73
2020/12/06 10:14:49;;;;;;;6.65;3.70;;;;;;;20.65;37.38;98345.06;5012259;28;20037;-77
2020/12/06 10:17:14;;;;;;;7.63;3.95;;;;;;;20.65;37.55;98352.94;5012436;28;20113;-78
2020/12/06 10:19:40;;;;;;;6.22;3.70;;;;;;;20.65;37.50;98345.06;5011975;28;20045;-73
2020/12/06 10:22:05;;;;;;;8.27;4.18;;;;;;;20.65;37.30;98344.22;5011395;28;20120;-71
2020/12/06 10:24:31;;;;;;;12.45;4.40;;;;;;;20.71;37.45;98348.31;4992657;28;20069;-76
2020/12/06 10:26:57;;;;;;;14.18;4.75;;;;;;;20.68;37.33;98349.31;4991315;28;20030;-76
2020/12/06 10:29:23;;;;;;;13.70;5.00;;;;;;;20.72;37.34;98361.38;4991438;28;20482;-79
2020/12/06 10:31:54;;;;;;;24.85;5.40;;;;;;;20.69;37.35;98367.66;4992686;28;20046;-72
2020/12/06 10:34:20;;;;;;;19.42;5.38;;;;;;;20.71;37.47;98366.72;4990669;28;20112;-74
2020/12/06 10:36:54;;;;;;;19.02;4.97;;;;;;;20.71;37.47;98374.63;4974763;28;20566;-71
2020/12/06 10:39:22;;;;;;;;;;;;;;;20.67;37.25;98374.78;4992973;28;20042;-77
2020/12/06 10:41:49;;;;;;;15.40;5.10;;;;;;;20.66;37.58;98383.59;4992001;28;19918;-79
2020/12/06 10:44:16;;;;;;;20.65;5.07;;;;;;;20.69;37.41;98375.56;4992544;28;20046;-74
2020/12/06 10:46:41;;;;;;;15.38;5.63;;;;;;;20.69;37.27;98370.28;4990955;28;20533;-75
2020/12/06 10:49:07;;;;;;;10.70;4.40;;;;;;;20.72;37.20;98371.06;4999490;28;20034;-77
2020/12/06 10:51:33;;;;;;;16.23;5.10;;;;;;;20.71;37.14;98372.81;4993433;28;20579;-79
2020/12/06 10:53:58;;;;;;;11.23;4.50;;;;;;;20.71;37.20;98375.47;4992378;28;20109;-72
2020/12/06 10:56:26;;;;;;;17.80;4.63;;;;;;;20.71;37.51;98385.97;4992452;28;20037;-76
2020/12/06 10:58:52;;;;;;;9.55;4.75;;;;;;;20.71;37.14;98396.50;4992190;28;20043;-75
2020/12/06 11:01:17;;;;;;;14.10;4.65;;;;;;;20.69;37.34;98396.59;5008689;28;20565;-74
2020/12/06 11:03:42;;;;;;;9.18;4.95;;;;;;;20.69;37.20;98406.28;4995933;28;20053;-76
2020/12/06 11:06:08;;;;;;;12.65;5.38;;;;;;;20.67;37.20;98414.25;4996222;28;20044;-72
2020/12/06 11:08:33;;;;;;;10.75;5.25;;;;;;;20.69;37.27;98420.28;4996394;28;20454;-74
2020/12/06 11:10:59;;;;;;;8.68;4.38;;;;;;;20.71;37.24;98427.25;4995860;28;20042;-73
2020/12/06 11:13:25;;;;;;;11.00;4.78;;;;;;;20.67;37.22;98432.69;4996042;28;20038;-74
2020/12/06 11:15:51;;;;;;;13.25;4.60;;;;;;;20.66;37.36;98425.72;4996193;28;20043;-75
2020/12/06 11:18:16;;;;;;;8.80;4.72;;;;;;;20.65;37.21;98423.16;4995626;28;20092;-74
2020/12/06 11:20:41;;;;;;;8.27;4.68;;;;;;;20.64;37.42;98414.41;4995017;28;20443;-78
2020/12/06 11:23:07;;;;;;;8.95;4.72;;;;;;;20.65;37.23;98413.47;4995816;28;20522;-76
2020/12/06 11:25:32;;;;;;;7.53;5.07;;;;;;;20.65;37.23;98407.38;4996027;28;20086;-74
2020/12/06 11:27:58;;;;;;;11.45;4.60;;;;;;;20.64;37.09;98406.50;4996002;28;20042;-72
2020/12/06 11:30:23;;;;;;;9.27;4.43;;;;;;;20.63;37.35;98396.91;4995829;28;20034;-74
2020/12/06 11:32:49;;;;;;;10.70;4.63;;;;;;;20.66;37.43;98399.38;4995452;28;20031;-76
2020/12/06 11:35:14;;;;;;;10.55;4.82;;;;;;;20.67;37.30;98385.31;4995722;28;20030;-72